sensor_id;sensor_type;location;lat;lon;timestamp;P1;durP1;ratioP1;P2;durP2;ratioP2
31406;SDS011;18043;52.438;4.836;2022-09-03T00:00:23;3.35;;;1.98;;
31406;SDS011;18043;52.438;4.836;2022-09-03T00:02:58;6.68;;;2.00;;
31406;SDS011;18043;52.438;4.836;2022-09-03T00:05:36;4.53;;;2.10;;
31406;SDS011;18043;52.438;4.836;2022-09-03T00:08:13;9.00;;;2.47;;
31406;SDS011;18043;52.438;4.836;2022-09-03T00:13:53;6.80;;;1.98;;
31406;SDS011;18043;52.438;4.836;2022-09-03T00:16:35;2.38;;;1.77;;
31406;SDS011;18043;52.438;4.836;2022-09-03T00:19:15;5.50;;;1.60;;
31406;SDS011;18043;52.438;4.836;2022-09-03T00:21:53;4.53;;;1.80;;
31406;SDS011;18043;52.438;4.836;2022-09-03T00:24:32;7.97;;;1.95;;
31406;SDS011;18043;52.438;4.836;2022-09-03T00:27:10;5.20;;;1.70;;
31406;SDS011;18043;52.438;4.836;2022-09-03T00:32:54;1.95;;;1.85;;
31406;SDS011;18043;52.438;4.836;2022-09-03T00:35:36;5.85;;;3.03;;
31406;SDS011;18043;52.438;4.836;2022-09-03T00:38:15;3.58;;;1.90;;
31406;SDS011;18043;52.438;4.836;2022-09-03T00:41:03;11.82;;;2.05;;
31406;SDS011;18043;52.438;4.836;2022-09-03T00:43:45;13.70;;;2.67;;
31406;SDS011;18043;52.438;4.836;2022-09-03T00:46:32;3.35;;;1.58;;
31406;SDS011;18043;52.438;4.836;2022-09-03T00:49:16;2.65;;;1.50;;
31406;SDS011;18043;52.438;4.836;2022-09-03T00:52:02;5.68;;;2.42;;
31406;SDS011;18043;52.438;4.836;2022-09-03T00:54:58;2.92;;;1.70;;
31406;SDS011;18043;52.438;4.836;2022-09-03T00:57:41;4.25;;;1.48;;
31406;SDS011;18043;52.438;4.836;2022-09-03T01:00:21;5.95;;;2.67;;
31406;SDS011;18043;52.438;4.836;2022-09-03T01:02:56;4.10;;;2.20;;
31406;SDS011;18043;52.438;4.836;2022-09-03T01:08:27;4.95;;;2.20;;
31406;SDS011;18043;52.438;4.836;2022-09-03T01:11:17;5.70;;;1.80;;
31406;SDS011;18043;52.438;4.836;2022-09-03T01:13:59;4.30;;;1.77;;
31406;SDS011;18043;52.438;4.836;2022-09-03T01:16:41;9.40;;;2.55;;
31406;SDS011;18043;52.438;4.836;2022-09-03T01:19:28;3.22;;;2.28;;
31406;SDS011;18043;52.438;4.836;2022-09-03T01:29:22;6.47;;;1.83;;
31406;SDS011;18043;52.438;4.836;2022-09-03T01:32:00;7.57;;;2.38;;
31406;SDS011;18043;52.438;4.836;2022-09-03T01:34:43;8.68;;;2.00;;
31406;SDS011;18043;52.438;4.836;2022-09-03T01:40:06;4.88;;;1.83;;
31406;SDS011;18043;52.438;4.836;2022-09-03T01:42:48;7.40;;;2.83;;
31406;SDS011;18043;52.438;4.836;2022-09-03T01:45:40;2.10;;;1.70;;
31406;SDS011;18043;52.438;4.836;2022-09-03T01:48:25;8.43;;;1.83;;
31406;SDS011;18043;52.438;4.836;2022-09-03T01:51:16;5.63;;;1.67;;
31406;SDS011;18043;52.438;4.836;2022-09-03T02:00:19;2.15;;;1.65;;
31406;SDS011;18043;52.438;4.836;2022-09-03T02:02:53;3.60;;;1.70;;
31406;SDS011;18043;52.438;4.836;2022-09-03T02:05:26;3.55;;;2.00;;
31406;SDS011;18043;52.438;4.836;2022-09-03T02:08:00;2.92;;;2.00;;
31406;SDS011;18043;52.438;4.836;2022-09-03T02:10:37;1.83;;;1.73;;
31406;SDS011;18043;52.438;4.836;2022-09-03T02:13:12;2.45;;;1.88;;
31406;SDS011;18043;52.438;4.836;2022-09-03T02:15:49;6.80;;;2.10;;
31406;SDS011;18043;52.438;4.836;2022-09-03T02:18:26;5.60;;;1.88;;
31406;SDS011;18043;52.438;4.836;2022-09-03T02:21:03;2.70;;;1.42;;
31406;SDS011;18043;52.438;4.836;2022-09-03T02:23:37;5.65;;;2.33;;
31406;SDS011;18043;52.438;4.836;2022-09-03T02:26:11;5.72;;;1.85;;
31406;SDS011;18043;52.438;4.836;2022-09-03T02:28:49;6.72;;;2.17;;
31406;SDS011;18043;52.438;4.836;2022-09-03T02:31:23;2.08;;;1.70;;
31406;SDS011;18043;52.438;4.836;2022-09-03T02:33:58;3.47;;;1.67;;
31406;SDS011;18043;52.438;4.836;2022-09-03T02:36:32;4.00;;;2.05;;
31406;SDS011;18043;52.438;4.836;2022-09-03T02:39:07;4.50;;;2.30;;
31406;SDS011;18043;52.438;4.836;2022-09-03T02:41:39;5.45;;;1.75;;
31406;SDS011;18043;52.438;4.836;2022-09-03T02:46:54;2.17;;;1.83;;
31406;SDS011;18043;52.438;4.836;2022-09-03T02:49:30;1.52;;;1.42;;
31406;SDS011;18043;52.438;4.836;2022-09-03T02:52:05;6.90;;;2.63;;
31406;SDS011;18043;52.438;4.836;2022-09-03T02:54:42;3.40;;;2.00;;
31406;SDS011;18043;52.438;4.836;2022-09-03T02:57:15;2.30;;;1.80;;
31406;SDS011;18043;52.438;4.836;2022-09-03T03:06:08;6.03;;;1.88;;
31406;SDS011;18043;52.438;4.836;2022-09-03T03:08:42;8.13;;;2.13;;
31406;SDS011;18043;52.438;4.836;2022-09-03T03:13:49;2.45;;;1.33;;
31406;SDS011;18043;52.438;4.836;2022-09-03T03:16:21;2.03;;;1.60;;
31406;SDS011;18043;52.438;4.836;2022-09-03T03:18:54;3.85;;;1.77;;
31406;SDS011;18043;52.438;4.836;2022-09-03T03:21:28;2.47;;;1.65;;
31406;SDS011;18043;52.438;4.836;2022-09-03T03:24:01;3.85;;;2.40;;
31406;SDS011;18043;52.438;4.836;2022-09-03T03:26:37;3.50;;;1.98;;
31406;SDS011;18043;52.438;4.836;2022-09-03T03:29:13;6.53;;;1.80;;
31406;SDS011;18043;52.438;4.836;2022-09-03T03:31:47;4.00;;;1.80;;
31406;SDS011;18043;52.438;4.836;2022-09-03T03:34:20;3.80;;;1.95;;
31406;SDS011;18043;52.438;4.836;2022-09-03T03:36:54;4.40;;;2.17;;
31406;SDS011;18043;52.438;4.836;2022-09-03T03:39:26;8.93;;;1.95;;
31406;SDS011;18043;52.438;4.836;2022-09-03T03:41:59;5.03;;;1.90;;
31406;SDS011;18043;52.438;4.836;2022-09-03T03:44:31;4.95;;;1.90;;
31406;SDS011;18043;52.438;4.836;2022-09-03T03:47:04;8.27;;;2.17;;
31406;SDS011;18043;52.438;4.836;2022-09-03T03:49:36;6.93;;;1.70;;
31406;SDS011;18043;52.438;4.836;2022-09-03T03:52:10;2.25;;;1.63;;
31406;SDS011;18043;52.438;4.836;2022-09-03T03:54:43;5.72;;;2.10;;
31406;SDS011;18043;52.438;4.836;2022-09-03T03:57:15;5.75;;;1.90;;
31406;SDS011;18043;52.438;4.836;2022-09-03T03:59:48;9.88;;;2.28;;
31406;SDS011;18043;52.438;4.836;2022-09-03T04:02:21;4.25;;;1.73;;
31406;SDS011;18043;52.438;4.836;2022-09-03T04:04:53;3.20;;;2.60;;
31406;SDS011;18043;52.438;4.836;2022-09-03T04:07:27;8.63;;;2.53;;
31406;SDS011;18043;52.438;4.836;2022-09-03T04:10:00;5.20;;;2.50;;
31406;SDS011;18043;52.438;4.836;2022-09-03T04:12:32;4.00;;;2.58;;
31406;SDS011;18043;52.438;4.836;2022-09-03T04:15:05;2.63;;;2.08;;
31406;SDS011;18043;52.438;4.836;2022-09-03T04:20:10;9.45;;;3.38;;
31406;SDS011;18043;52.438;4.836;2022-09-03T04:22:44;3.25;;;1.92;;
31406;SDS011;18043;52.438;4.836;2022-09-03T04:25:16;9.38;;;2.75;;
31406;SDS011;18043;52.438;4.836;2022-09-03T04:27:50;6.07;;;3.13;;
31406;SDS011;18043;52.438;4.836;2022-09-03T04:34:08;3.58;;;2.70;;
31406;SDS011;18043;52.438;4.836;2022-09-03T04:36:42;5.28;;;2.90;;
31406;SDS011;18043;52.438;4.836;2022-09-03T04:39:17;17.85;;;3.20;;
31406;SDS011;18043;52.438;4.836;2022-09-03T04:41:49;8.27;;;2.80;;
31406;SDS011;18043;52.438;4.836;2022-09-03T04:47:32;16.17;;;2.92;;
31406;SDS011;18043;52.438;4.836;2022-09-03T04:50:05;7.97;;;2.83;;
31406;SDS011;18043;52.438;4.836;2022-09-03T04:52:39;4.53;;;2.83;;
31406;SDS011;18043;52.438;4.836;2022-09-03T04:55:13;6.25;;;3.67;;
31406;SDS011;18043;52.438;4.836;2022-09-03T04:57:46;5.05;;;3.28;;
31406;SDS011;18043;52.438;4.836;2022-09-03T05:00:18;6.97;;;3.38;;
31406;SDS011;18043;52.438;4.836;2022-09-03T05:06:39;7.43;;;3.40;;
31406;SDS011;18043;52.438;4.836;2022-09-03T05:09:12;3.97;;;3.20;;
31406;SDS011;18043;52.438;4.836;2022-09-03T05:11:46;5.07;;;3.42;;
31406;SDS011;18043;52.438;4.836;2022-09-03T05:14:18;6.57;;;2.78;;
31406;SDS011;18043;52.438;4.836;2022-09-03T05:19:24;6.45;;;3.80;;
31406;SDS011;18043;52.438;4.836;2022-09-03T05:21:58;4.75;;;3.20;;
31406;SDS011;18043;52.438;4.836;2022-09-03T05:24:37;5.45;;;3.10;;
31406;SDS011;18043;52.438;4.836;2022-09-03T05:27:11;16.90;;;4.60;;
31406;SDS011;18043;52.438;4.836;2022-09-03T05:29:45;4.15;;;3.05;;
31406;SDS011;18043;52.438;4.836;2022-09-03T05:32:18;3.92;;;3.08;;
31406;SDS011;18043;52.438;4.836;2022-09-03T05:34:51;5.05;;;3.10;;
31406;SDS011;18043;52.438;4.836;2022-09-03T05:37:24;13.55;;;3.10;;
31406;SDS011;18043;52.438;4.836;2022-09-03T05:39:56;6.30;;;3.13;;
31406;SDS011;18043;52.438;4.836;2022-09-03T05:45:58;4.40;;;1.95;;
31406;SDS011;18043;52.438;4.836;2022-09-03T05:48:31;6.68;;;2.67;;
31406;SDS011;18043;52.438;4.836;2022-09-03T05:51:21;4.43;;;2.35;;
31406;SDS011;18043;52.438;4.836;2022-09-03T05:53:53;4.97;;;2.40;;
31406;SDS011;18043;52.438;4.836;2022-09-03T05:56:26;4.18;;;1.73;;
31406;SDS011;18043;52.438;4.836;2022-09-03T05:59:02;8.60;;;3.10;;
31406;SDS011;18043;52.438;4.836;2022-09-03T06:01:38;8.02;;;2.30;;
31406;SDS011;18043;52.438;4.836;2022-09-03T06:04:13;8.65;;;2.42;;
31406;SDS011;18043;52.438;4.836;2022-09-03T06:06:46;5.10;;;2.50;;
31406;SDS011;18043;52.438;4.836;2022-09-03T06:09:20;3.95;;;2.00;;
31406;SDS011;18043;52.438;4.836;2022-09-03T06:11:52;2.20;;;1.73;;
31406;SDS011;18043;52.438;4.836;2022-09-03T06:14:26;2.50;;;2.08;;
31406;SDS011;18043;52.438;4.836;2022-09-03T06:16:59;7.10;;;2.75;;
31406;SDS011;18043;52.438;4.836;2022-09-03T06:19:31;4.63;;;2.08;;
31406;SDS011;18043;52.438;4.836;2022-09-03T06:22:04;2.78;;;1.65;;
31406;SDS011;18043;52.438;4.836;2022-09-03T06:24:36;2.95;;;1.60;;
31406;SDS011;18043;52.438;4.836;2022-09-03T06:27:08;3.50;;;1.70;;
31406;SDS011;18043;52.438;4.836;2022-09-03T06:29:42;4.90;;;1.98;;
31406;SDS011;18043;52.438;4.836;2022-09-03T06:32:15;3.20;;;1.20;;
31406;SDS011;18043;52.438;4.836;2022-09-03T06:34:48;4.75;;;1.33;;
31406;SDS011;18043;52.438;4.836;2022-09-03T06:37:21;5.82;;;1.17;;
31406;SDS011;18043;52.438;4.836;2022-09-03T06:39:53;3.08;;;1.35;;
31406;SDS011;18043;52.438;4.836;2022-09-03T06:42:26;6.10;;;1.40;;
31406;SDS011;18043;52.438;4.836;2022-09-03T06:47:32;3.53;;;1.00;;
31406;SDS011;18043;52.438;4.836;2022-09-03T06:50:05;8.13;;;1.48;;
31406;SDS011;18043;52.438;4.836;2022-09-03T06:52:38;5.63;;;1.83;;
31406;SDS011;18043;52.438;4.836;2022-09-03T06:55:11;1.67;;;1.10;;
31406;SDS011;18043;52.438;4.836;2022-09-03T07:00:17;2.07;;;0.70;;
31406;SDS011;18043;52.438;4.836;2022-09-03T07:02:54;6.43;;;1.10;;
31406;SDS011;18043;52.438;4.836;2022-09-03T07:05:29;2.53;;;1.27;;
31406;SDS011;18043;52.438;4.836;2022-09-03T07:08:02;4.25;;;1.15;;
31406;SDS011;18043;52.438;4.836;2022-09-03T07:13:07;4.60;;;1.08;;
31406;SDS011;18043;52.438;4.836;2022-09-03T07:18:16;6.05;;;0.98;;
31406;SDS011;18043;52.438;4.836;2022-09-03T07:20:48;4.20;;;1.00;;
31406;SDS011;18043;52.438;4.836;2022-09-03T07:23:23;5.80;;;1.30;;
31406;SDS011;18043;52.438;4.836;2022-09-03T07:28:28;5.00;;;0.88;;
31406;SDS011;18043;52.438;4.836;2022-09-03T07:31:04;1.65;;;1.10;;
31406;SDS011;18043;52.438;4.836;2022-09-03T07:33:40;4.30;;;1.05;;
31406;SDS011;18043;52.438;4.836;2022-09-03T07:36:13;1.65;;;0.80;;
31406;SDS011;18043;52.438;4.836;2022-09-03T07:38:47;3.80;;;0.90;;
31406;SDS011;18043;52.438;4.836;2022-09-03T07:41:20;3.80;;;1.00;;
31406;SDS011;18043;52.438;4.836;2022-09-03T07:43:54;8.85;;;1.73;;
31406;SDS011;18043;52.438;4.836;2022-09-03T07:46:28;3.78;;;1.15;;
31406;SDS011;18043;52.438;4.836;2022-09-03T07:49:01;5.78;;;1.33;;
31406;SDS011;18043;52.438;4.836;2022-09-03T07:51:34;4.72;;;1.30;;
31406;SDS011;18043;52.438;4.836;2022-09-03T07:54:08;6.93;;;1.25;;
31406;SDS011;18043;52.438;4.836;2022-09-03T07:56:41;3.65;;;1.30;;
31406;SDS011;18043;52.438;4.836;2022-09-03T07:59:14;3.35;;;1.33;;
31406;SDS011;18043;52.438;4.836;2022-09-03T08:01:48;2.95;;;1.02;;
31406;SDS011;18043;52.438;4.836;2022-09-03T08:04:21;4.15;;;1.52;;
31406;SDS011;18043;52.438;4.836;2022-09-03T08:06:55;1.92;;;1.15;;
31406;SDS011;18043;52.438;4.836;2022-09-03T08:09:29;3.20;;;1.08;;
31406;SDS011;18043;52.438;4.836;2022-09-03T08:12:02;3.47;;;1.08;;
31406;SDS011;18043;52.438;4.836;2022-09-03T08:14:35;2.28;;;1.08;;
31406;SDS011;18043;52.438;4.836;2022-09-03T08:17:09;1.73;;;1.10;;
31406;SDS011;18043;52.438;4.836;2022-09-03T08:19:42;3.22;;;1.25;;
31406;SDS011;18043;52.438;4.836;2022-09-03T08:22:16;2.80;;;0.88;;
31406;SDS011;18043;52.438;4.836;2022-09-03T08:24:50;2.92;;;1.15;;
31406;SDS011;18043;52.438;4.836;2022-09-03T08:27:23;6.28;;;1.15;;
31406;SDS011;18043;52.438;4.836;2022-09-03T08:29:56;4.50;;;1.05;;
31406;SDS011;18043;52.438;4.836;2022-09-03T08:32:30;3.17;;;1.20;;
31406;SDS011;18043;52.438;4.836;2022-09-03T08:35:05;6.03;;;1.42;;
31406;SDS011;18043;52.438;4.836;2022-09-03T08:37:39;7.38;;;1.80;;
31406;SDS011;18043;52.438;4.836;2022-09-03T08:40:11;3.55;;;1.25;;
31406;SDS011;18043;52.438;4.836;2022-09-03T08:42:47;2.13;;;1.20;;
31406;SDS011;18043;52.438;4.836;2022-09-03T08:45:30;2.42;;;1.00;;
31406;SDS011;18043;52.438;4.836;2022-09-03T08:48:09;2.10;;;1.38;;
31406;SDS011;18043;52.438;4.836;2022-09-03T08:50:46;4.63;;;1.67;;
31406;SDS011;18043;52.438;4.836;2022-09-03T08:53:26;3.15;;;0.93;;
31406;SDS011;18043;52.438;4.836;2022-09-03T08:56:08;8.35;;;1.30;;
31406;SDS011;18043;52.438;4.836;2022-09-03T08:58:44;8.32;;;1.42;;
31406;SDS011;18043;52.438;4.836;2022-09-03T09:01:25;3.80;;;0.95;;
31406;SDS011;18043;52.438;4.836;2022-09-03T09:04:16;4.00;;;1.15;;
31406;SDS011;18043;52.438;4.836;2022-09-03T09:07:04;3.97;;;1.20;;
31406;SDS011;18043;52.438;4.836;2022-09-03T09:09:45;4.15;;;1.27;;
31406;SDS011;18043;52.438;4.836;2022-09-03T09:12:28;1.92;;;1.35;;
31406;SDS011;18043;52.438;4.836;2022-09-03T09:15:09;4.30;;;1.17;;
31406;SDS011;18043;52.438;4.836;2022-09-03T09:17:55;3.45;;;1.00;;
31406;SDS011;18043;52.438;4.836;2022-09-03T09:20:41;3.28;;;0.90;;
31406;SDS011;18043;52.438;4.836;2022-09-03T09:23:23;5.82;;;1.40;;
31406;SDS011;18043;52.438;4.836;2022-09-03T09:26:02;1.42;;;1.10;;
31406;SDS011;18043;52.438;4.836;2022-09-03T09:28:41;4.53;;;1.10;;
31406;SDS011;18043;52.438;4.836;2022-09-03T09:31:16;3.17;;;1.20;;
31406;SDS011;18043;52.438;4.836;2022-09-03T09:33:49;4.05;;;1.23;;
31406;SDS011;18043;52.438;4.836;2022-09-03T09:39:06;6.22;;;1.52;;
31406;SDS011;18043;52.438;4.836;2022-09-03T09:41:39;6.30;;;1.70;;
31406;SDS011;18043;52.438;4.836;2022-09-03T09:44:18;4.70;;;1.50;;
31406;SDS011;18043;52.438;4.836;2022-09-03T09:46:59;4.13;;;1.70;;
31406;SDS011;18043;52.438;4.836;2022-09-03T09:49:36;7.07;;;1.38;;
31406;SDS011;18043;52.438;4.836;2022-09-03T09:52:22;7.43;;;1.00;;
31406;SDS011;18043;52.438;4.836;2022-09-03T09:55:05;4.55;;;0.98;;
31406;SDS011;18043;52.438;4.836;2022-09-03T09:57:46;10.60;;;1.70;;
31406;SDS011;18043;52.438;4.836;2022-09-03T10:00:23;3.35;;;1.73;;
31406;SDS011;18043;52.438;4.836;2022-09-03T10:05:28;5.22;;;1.60;;
31406;SDS011;18043;52.438;4.836;2022-09-03T10:08:06;4.88;;;2.13;;
31406;SDS011;18043;52.438;4.836;2022-09-03T10:10:50;5.43;;;1.23;;
31406;SDS011;18043;52.438;4.836;2022-09-03T10:13:23;1.80;;;1.20;;
31406;SDS011;18043;52.438;4.836;2022-09-03T10:16:01;8.63;;;1.50;;
31406;SDS011;18043;52.438;4.836;2022-09-03T10:18:39;5.05;;;1.25;;
31406;SDS011;18043;52.438;4.836;2022-09-03T10:21:17;9.23;;;1.98;;
31406;SDS011;18043;52.438;4.836;2022-09-03T10:23:57;5.20;;;1.38;;
31406;SDS011;18043;52.438;4.836;2022-09-03T10:26:44;8.20;;;1.30;;
31406;SDS011;18043;52.438;4.836;2022-09-03T10:29:17;6.82;;;1.20;;
31406;SDS011;18043;52.438;4.836;2022-09-03T10:32:00;8.77;;;1.90;;
31406;SDS011;18043;52.438;4.836;2022-09-03T10:34:47;2.50;;;1.30;;
31406;SDS011;18043;52.438;4.836;2022-09-03T10:37:34;1.85;;;1.20;;
31406;SDS011;18043;52.438;4.836;2022-09-03T10:40:15;10.80;;;1.88;;
31406;SDS011;18043;52.438;4.836;2022-09-03T10:43:06;2.75;;;1.52;;
31406;SDS011;18043;52.438;4.836;2022-09-03T10:45:57;4.55;;;1.40;;
31406;SDS011;18043;52.438;4.836;2022-09-03T10:48:49;5.63;;;1.70;;
31406;SDS011;18043;52.438;4.836;2022-09-03T10:51:54;2.42;;;1.30;;
31406;SDS011;18043;52.438;4.836;2022-09-03T10:54:40;3.15;;;1.17;;
31406;SDS011;18043;52.438;4.836;2022-09-03T10:57:30;9.60;;;1.30;;
31406;SDS011;18043;52.438;4.836;2022-09-03T11:00:14;1.80;;;1.50;;
31406;SDS011;18043;52.438;4.836;2022-09-03T11:06:05;6.93;;;1.55;;
31406;SDS011;18043;52.438;4.836;2022-09-03T11:08:43;3.33;;;1.05;;
31406;SDS011;18043;52.438;4.836;2022-09-03T11:11:25;9.82;;;2.00;;
31406;SDS011;18043;52.438;4.836;2022-09-03T11:14:06;1.85;;;1.17;;
31406;SDS011;18043;52.438;4.836;2022-09-03T11:16:40;9.93;;;1.27;;
31406;SDS011;18043;52.438;4.836;2022-09-03T11:19:19;3.80;;;1.25;;
31406;SDS011;18043;52.438;4.836;2022-09-03T11:22:00;8.13;;;1.77;;
31406;SDS011;18043;52.438;4.836;2022-09-03T11:24:35;3.13;;;1.58;;
31406;SDS011;18043;52.438;4.836;2022-09-03T11:27:21;3.63;;;1.35;;
31406;SDS011;18043;52.438;4.836;2022-09-03T11:30:22;5.70;;;1.95;;
31406;SDS011;18043;52.438;4.836;2022-09-03T11:32:59;8.25;;;1.55;;
31406;SDS011;18043;52.438;4.836;2022-09-03T11:35:39;6.55;;;1.25;;
31406;SDS011;18043;52.438;4.836;2022-09-03T11:38:18;6.10;;;1.23;;
31406;SDS011;18043;52.438;4.836;2022-09-03T11:40:57;4.40;;;1.65;;
31406;SDS011;18043;52.438;4.836;2022-09-03T11:43:33;4.68;;;1.73;;
31406;SDS011;18043;52.438;4.836;2022-09-03T11:46:09;3.53;;;1.23;;
31406;SDS011;18043;52.438;4.836;2022-09-03T11:49:08;2.30;;;1.08;;
31406;SDS011;18043;52.438;4.836;2022-09-03T11:51:42;4.50;;;1.33;;
31406;SDS011;18043;52.438;4.836;2022-09-03T11:54:24;3.53;;;1.33;;
31406;SDS011;18043;52.438;4.836;2022-09-03T11:57:04;3.78;;;1.23;;
31406;SDS011;18043;52.438;4.836;2022-09-03T11:59:43;5.57;;;1.50;;
31406;SDS011;18043;52.438;4.836;2022-09-03T12:02:22;6.28;;;1.52;;
31406;SDS011;18043;52.438;4.836;2022-09-03T12:05:05;10.00;;;1.70;;
31406;SDS011;18043;52.438;4.836;2022-09-03T12:07:56;3.05;;;0.93;;
31406;SDS011;18043;52.438;4.836;2022-09-03T12:10:44;7.15;;;2.08;;
31406;SDS011;18043;52.438;4.836;2022-09-03T12:13:30;3.35;;;1.08;;
31406;SDS011;18043;52.438;4.836;2022-09-03T12:16:22;4.57;;;0.98;;
31406;SDS011;18043;52.438;4.836;2022-09-03T12:19:19;6.95;;;1.42;;
31406;SDS011;18043;52.438;4.836;2022-09-03T12:22:01;1.75;;;1.00;;
31406;SDS011;18043;52.438;4.836;2022-09-03T12:24:34;1.80;;;1.02;;
31406;SDS011;18043;52.438;4.836;2022-09-03T12:27:07;2.95;;;1.45;;
31406;SDS011;18043;52.438;4.836;2022-09-03T12:29:49;5.65;;;1.55;;
31406;SDS011;18043;52.438;4.836;2022-09-03T12:32:26;4.45;;;1.00;;
31406;SDS011;18043;52.438;4.836;2022-09-03T12:35:10;3.00;;;1.45;;
31406;SDS011;18043;52.438;4.836;2022-09-03T12:37:45;3.63;;;0.95;;
31406;SDS011;18043;52.438;4.836;2022-09-03T12:40:18;6.75;;;1.58;;
31406;SDS011;18043;52.438;4.836;2022-09-03T12:42:53;6.72;;;1.63;;
31406;SDS011;18043;52.438;4.836;2022-09-03T12:45:26;3.90;;;1.40;;
31406;SDS011;18043;52.438;4.836;2022-09-03T12:47:59;3.45;;;1.40;;
31406;SDS011;18043;52.438;4.836;2022-09-03T12:50:33;2.97;;;1.67;;
31406;SDS011;18043;52.438;4.836;2022-09-03T12:53:07;4.60;;;1.30;;
31406;SDS011;18043;52.438;4.836;2022-09-03T12:55:42;7.00;;;1.30;;
31406;SDS011;18043;52.438;4.836;2022-09-03T12:58:18;3.78;;;1.23;;
31406;SDS011;18043;52.438;4.836;2022-09-03T13:00:55;5.70;;;1.20;;
31406;SDS011;18043;52.438;4.836;2022-09-03T13:03:30;5.97;;;1.40;;
31406;SDS011;18043;52.438;4.836;2022-09-03T13:06:14;1.23;;;1.02;;
31406;SDS011;18043;52.438;4.836;2022-09-03T13:12:20;1.10;;;1.00;;
31406;SDS011;18043;52.438;4.836;2022-09-03T13:14:54;4.07;;;0.90;;
31406;SDS011;18043;52.438;4.836;2022-09-03T13:17:29;3.50;;;1.20;;
31406;SDS011;18043;52.438;4.836;2022-09-03T13:20:32;8.00;;;1.27;;
31406;SDS011;18043;52.438;4.836;2022-09-03T13:23:16;1.48;;;0.93;;
31406;SDS011;18043;52.438;4.836;2022-09-03T13:26:12;8.00;;;1.25;;
31406;SDS011;18043;52.438;4.836;2022-09-03T13:28:59;3.45;;;1.35;;
31406;SDS011;18043;52.438;4.836;2022-09-03T13:31:51;5.55;;;1.20;;
31406;SDS011;18043;52.438;4.836;2022-09-03T13:34:31;3.38;;;1.63;;
31406;SDS011;18043;52.438;4.836;2022-09-03T13:37:10;6.63;;;1.30;;
31406;SDS011;18043;52.438;4.836;2022-09-03T13:39:53;8.82;;;1.58;;
31406;SDS011;18043;52.438;4.836;2022-09-03T13:42:31;2.35;;;1.27;;
31406;SDS011;18043;52.438;4.836;2022-09-03T13:45:12;5.93;;;1.25;;
31406;SDS011;18043;52.438;4.836;2022-09-03T13:47:55;4.32;;;1.25;;
31406;SDS011;18043;52.438;4.836;2022-09-03T13:50:56;4.80;;;1.67;;
31406;SDS011;18043;52.438;4.836;2022-09-03T13:53:47;6.43;;;1.05;;
31406;SDS011;18043;52.438;4.836;2022-09-03T13:56:34;2.63;;;1.27;;
31406;SDS011;18043;52.438;4.836;2022-09-03T13:59:18;1.75;;;1.38;;
31406;SDS011;18043;52.438;4.836;2022-09-03T14:02:12;7.50;;;1.33;;
31406;SDS011;18043;52.438;4.836;2022-09-03T14:04:57;3.03;;;1.13;;
31406;SDS011;18043;52.438;4.836;2022-09-03T14:07:42;1.67;;;1.10;;
31406;SDS011;18043;52.438;4.836;2022-09-03T14:10:26;2.75;;;1.25;;
31406;SDS011;18043;52.438;4.836;2022-09-03T14:13:12;5.32;;;1.63;;
31406;SDS011;18043;52.438;4.836;2022-09-03T14:15:56;7.63;;;1.10;;
31406;SDS011;18043;52.438;4.836;2022-09-03T14:18:37;9.65;;;1.40;;
31406;SDS011;18043;52.438;4.836;2022-09-03T14:21:17;2.47;;;1.42;;
31406;SDS011;18043;52.438;4.836;2022-09-03T14:23:58;8.18;;;1.40;;
31406;SDS011;18043;52.438;4.836;2022-09-03T14:26:37;9.60;;;1.50;;
31406;SDS011;18043;52.438;4.836;2022-09-03T14:29:24;3.58;;;1.20;;
31406;SDS011;18043;52.438;4.836;2022-09-03T14:32:04;2.25;;;1.23;;
31406;SDS011;18043;52.438;4.836;2022-09-03T14:35:10;3.25;;;1.42;;
31406;SDS011;18043;52.438;4.836;2022-09-03T14:38:17;4.65;;;1.00;;
31406;SDS011;18043;52.438;4.836;2022-09-03T14:41:36;4.25;;;1.20;;
31406;SDS011;18043;52.438;4.836;2022-09-03T14:44:37;6.32;;;1.05;;
31406;SDS011;18043;52.438;4.836;2022-09-03T14:47:29;8.73;;;2.22;;
31406;SDS011;18043;52.438;4.836;2022-09-03T14:50:24;2.17;;;1.05;;
31406;SDS011;18043;52.438;4.836;2022-09-03T14:53:15;7.32;;;1.77;;
31406;SDS011;18043;52.438;4.836;2022-09-03T14:56:21;3.85;;;1.10;;
31406;SDS011;18043;52.438;4.836;2022-09-03T15:05:46;1.98;;;1.25;;
31406;SDS011;18043;52.438;4.836;2022-09-03T15:08:46;6.22;;;1.10;;
31406;SDS011;18043;52.438;4.836;2022-09-03T15:11:29;3.47;;;1.10;;
31406;SDS011;18043;52.438;4.836;2022-09-03T15:14:05;1.50;;;1.08;;
31406;SDS011;18043;52.438;4.836;2022-09-03T15:16:46;2.25;;;1.13;;
31406;SDS011;18043;52.438;4.836;2022-09-03T15:25:30;5.85;;;0.95;;
31406;SDS011;18043;52.438;4.836;2022-09-03T15:28:17;3.80;;;0.98;;
31406;SDS011;18043;52.438;4.836;2022-09-03T15:30:58;7.13;;;1.38;;
31406;SDS011;18043;52.438;4.836;2022-09-03T15:33:43;2.17;;;0.88;;
31406;SDS011;18043;52.438;4.836;2022-09-03T15:36:32;5.30;;;1.20;;
31406;SDS011;18043;52.438;4.836;2022-09-03T15:39:08;1.15;;;0.90;;
31406;SDS011;18043;52.438;4.836;2022-09-03T15:41:46;4.35;;;1.38;;
31406;SDS011;18043;52.438;4.836;2022-09-03T15:44:26;4.13;;;1.00;;
31406;SDS011;18043;52.438;4.836;2022-09-03T15:47:08;1.63;;;1.27;;
31406;SDS011;18043;52.438;4.836;2022-09-03T15:49:50;7.30;;;1.38;;
31406;SDS011;18043;52.438;4.836;2022-09-03T15:52:31;4.32;;;1.13;;
31406;SDS011;18043;52.438;4.836;2022-09-03T15:57:55;2.03;;;1.30;;
31406;SDS011;18043;52.438;4.836;2022-09-03T16:00:39;2.60;;;1.23;;
31406;SDS011;18043;52.438;4.836;2022-09-03T16:03:30;4.07;;;1.00;;
31406;SDS011;18043;52.438;4.836;2022-09-03T16:06:17;5.40;;;1.00;;
31406;SDS011;18043;52.438;4.836;2022-09-03T16:09:08;4.78;;;1.13;;
31406;SDS011;18043;52.438;4.836;2022-09-03T16:11:54;2.22;;;1.20;;
31406;SDS011;18043;52.438;4.836;2022-09-03T16:14:37;1.70;;;1.10;;
31406;SDS011;18043;52.438;4.836;2022-09-03T16:17:18;7.30;;;1.10;;
31406;SDS011;18043;52.438;4.836;2022-09-03T16:22:39;1.98;;;1.00;;
31406;SDS011;18043;52.438;4.836;2022-09-03T16:25:18;1.58;;;1.05;;
31406;SDS011;18043;52.438;4.836;2022-09-03T16:27:53;3.28;;;1.10;;
31406;SDS011;18043;52.438;4.836;2022-09-03T16:30:36;2.65;;;1.08;;
31406;SDS011;18043;52.438;4.836;2022-09-03T16:33:25;4.63;;;1.35;;
31406;SDS011;18043;52.438;4.836;2022-09-03T16:36:05;1.95;;;1.05;;
31406;SDS011;18043;52.438;4.836;2022-09-03T16:39:00;7.97;;;1.45;;
31406;SDS011;18043;52.438;4.836;2022-09-03T16:41:41;10.45;;;1.85;;
31406;SDS011;18043;52.438;4.836;2022-09-03T16:44:22;6.13;;;1.38;;
31406;SDS011;18043;52.438;4.836;2022-09-03T16:47:03;3.25;;;1.42;;
31406;SDS011;18043;52.438;4.836;2022-09-03T16:49:48;6.47;;;1.33;;
31406;SDS011;18043;52.438;4.836;2022-09-03T16:52:31;4.65;;;1.40;;
31406;SDS011;18043;52.438;4.836;2022-09-03T16:55:15;2.30;;;1.17;;
31406;SDS011;18043;52.438;4.836;2022-09-03T16:57:58;2.53;;;1.60;;
31406;SDS011;18043;52.438;4.836;2022-09-03T17:00:44;2.72;;;1.63;;
31406;SDS011;18043;52.438;4.836;2022-09-03T17:03:38;2.85;;;1.88;;
31406;SDS011;18043;52.438;4.836;2022-09-03T17:06:50;5.75;;;1.38;;
31406;SDS011;18043;52.438;4.836;2022-09-03T17:09:53;2.65;;;1.38;;
31406;SDS011;18043;52.438;4.836;2022-09-03T17:12:35;5.28;;;1.80;;
31406;SDS011;18043;52.438;4.836;2022-09-03T17:15:29;7.45;;;2.17;;
31406;SDS011;18043;52.438;4.836;2022-09-03T17:18:11;6.45;;;1.75;;
31406;SDS011;18043;52.438;4.836;2022-09-03T17:21:09;3.65;;;2.47;;
31406;SDS011;18043;52.438;4.836;2022-09-03T17:24:02;6.53;;;1.85;;
31406;SDS011;18043;52.438;4.836;2022-09-03T17:26:50;8.77;;;1.50;;
31406;SDS011;18043;52.438;4.836;2022-09-03T17:29:36;1.77;;;1.13;;
31406;SDS011;18043;52.438;4.836;2022-09-03T17:32:30;3.80;;;1.35;;
31406;SDS011;18043;52.438;4.836;2022-09-03T17:35:40;3.47;;;2.47;;
31406;SDS011;18043;52.438;4.836;2022-09-03T17:38:27;2.80;;;1.45;;
31406;SDS011;18043;52.438;4.836;2022-09-03T17:41:30;10.65;;;1.70;;